Time;durP1;ratioP1;P1;durP2;ratioP2;P2;SDS_P1;SDS_P2;PMS_P1;PMS_P2;Temp;Humidity;BMP_temperature;BMP_pressure;BME280_temperature;BME280_humidity;BME280_pressure;Samples;Min_cycle;Max_cycle;Signal;HPM_P1;HPM_P2
2022/03/20 00:00:54;;;;;;;32.40;26.75;;;;;21.70;102181.00;;;;2071621;28;21105;-50
2022/03/20 00:01:55;;;;;;;28.97;25.10;;;;;21.70;102175.00;;;;2071593;28;20224;-49
2022/03/20 00:02:55;;;;;;;25.30;22.53;;;;;21.70;102173.00;;;;2075932;28;20444;-49
2022/03/20 00:03:55;;;;;;;29.93;25.30;;;;;21.70;102176.00;;;;2079481;28;20213;-50
2022/03/20 00:04:56;;;;;;;30.13;24.50;;;;;21.70;102176.00;;;;2079312;28;20572;-50
2022/03/20 00:05:57;;;;;;;35.57;26.30;;;;;21.70;102172.00;;;;2078978;28;20648;-49
2022/03/20 00:06:57;;;;;;;25.57;22.87;;;;;21.70;102168.00;;;;2079393;28;20216;-49
2022/03/20 00:07:58;;;;;;;28.00;24.10;;;;;21.70;102164.00;;;;2079808;28;20237;-49
2022/03/20 00:08:58;;;;;;;26.00;23.20;;;;;21.70;102169.00;;;;2075792;28;20221;-49
2022/03/20 00:09:59;;;;;;;28.13;23.77;;;;;21.70;102163.00;;;;2079365;28;20863;-49
2022/03/20 00:11:01;;;;;;;26.97;22.50;;;;;21.70;102160.00;;;;2077695;28;20600;-49
2022/03/20 00:12:02;;;;;;;23.65;21.15;;;;;21.70;102157.00;;;;2079502;28;20220;-49
2022/03/20 00:13:07;;;;;;;26.53;23.70;;;;;21.70;102172.00;;;;2078535;28;20249;-49
2022/03/20 00:14:08;;;;;;;25.10;22.42;;;;;21.70;102159.00;;;;2075397;28;20275;-49
2022/03/20 00:15:08;;;;;;;25.83;22.90;;;;;21.70;102156.00;;;;2079452;28;20217;-49
2022/03/20 00:16:09;;;;;;;23.20;20.63;;;;;21.70;102156.00;;;;2078825;28;20279;-49
2022/03/20 00:17:10;;;;;;;24.20;21.65;;;;;21.70;102150.00;;;;2079461;28;20220;-49
2022/03/20 00:18:11;;;;;;;25.17;22.13;;;;;21.70;102149.00;;;;2079520;28;20209;-50
2022/03/20 00:19:12;;;;;;;23.80;21.20;;;;;21.70;102155.00;;;;2079780;28;20221;-49
2022/03/20 00:20:12;;;;;;;25.53;22.50;;;;;21.70;102147.00;;;;2079589;28;20225;-49
2022/03/20 00:21:12;;;;;;;25.00;22.43;;;;;21.70;102142.00;;;;2079686;28;20712;-49
2022/03/20 00:22:13;;;;;;;23.30;20.80;;;;;21.70;102148.00;;;;2078875;28;20292;-49
2022/03/20 00:23:16;;;;;;;24.60;21.10;;;;;21.70;102145.00;;;;2070754;28;20955;-49
2022/03/20 00:24:18;;;;;;;22.27;19.52;;;;;21.70;102137.00;;;;2078997;28;20209;-49
2022/03/20 00:25:18;;;;;;;23.20;20.70;;;;;21.70;102142.00;;;;2078443;28;20290;-49
2022/03/20 00:26:19;;;;;;;22.83;20.43;;;;;21.70;102142.00;;;;2078388;28;20291;-49
2022/03/20 00:27:19;;;;;;;21.80;19.50;;;;;21.60;102145.00;;;;2078860;28;20648;-49
2022/03/20 00:28:23;;;;;;;21.67;19.47;;;;;21.60;102143.00;;;;2079234;28;20214;-50
2022/03/20 00:29:29;;;;;;;21.08;18.80;;;;;21.60;102128.00;;;;2079460;28;20229;-49
2022/03/20 00:30:29;;;;;;;21.55;19.17;;;;;21.60;102135.00;;;;2077705;28;20210;-49
2022/03/20 00:31:32;;;;;;;20.63;18.50;;;;;21.60;102135.00;;;;2072429;28;20725;-49
2022/03/20 00:32:32;;;;;;;22.13;19.45;;;;;21.60;102129.00;;;;2072030;28;20206;-49
2022/03/20 00:33:33;;;;;;;24.13;19.30;;;;;21.60;102131.00;;;;2068285;28;20268;-49
2022/03/20 00:34:33;;;;;;;21.20;18.93;;;;;21.60;102131.00;;;;2074402;28;20214;-49
2022/03/20 00:35:33;;;;;;;20.87;18.47;;;;;21.60;102130.00;;;;2072724;28;20207;-49
2022/03/20 00:36:36;;;;;;;20.50;18.40;;;;;21.60;102125.00;;;;2070804;28;20605;-49
2022/03/20 00:37:36;;;;;;;22.00;18.92;;;;;21.60;102125.00;;;;2073928;28;20293;-49
2022/03/20 00:38:37;;;;;;;20.10;17.90;;;;;21.60;102125.00;;;;2077444;28;20201;-49
2022/03/20 00:39:37;;;;;;;20.83;18.73;;;;;21.60;102127.00;;;;2078521;28;20209;-49
2022/03/20 00:40:38;;;;;;;20.83;18.43;;;;;21.60;102122.00;;;;2079378;28;21037;-49
2022/03/20 00:41:38;;;;;;;19.07;17.07;;;;;21.60;102118.00;;;;2077172;28;20233;-49
2022/03/20 00:42:38;;;;;;;20.97;18.50;;;;;21.60;102117.00;;;;2079597;28;20267;-49
2022/03/20 00:43:39;;;;;;;20.73;18.57;;;;;21.60;102113.00;;;;2079009;28;20228;-49
2022/03/20 00:44:39;;;;;;;18.77;16.87;;;;;21.60;102114.00;;;;2079458;28;20210;-49
2022/03/20 00:45:40;;;;;;;18.57;16.67;;;;;21.60;102106.00;;;;2078306;28;20303;-49
2022/03/20 00:46:40;;;;;;;20.50;18.40;;;;;21.60;102113.00;;;;2077245;28;21643;-49
2022/03/20 00:47:41;;;;;;;19.27;17.37;;;;;21.60;102108.00;;;;2078970;28;20649;-49
2022/03/20 00:48:41;;;;;;;18.80;16.90;;;;;21.60;102105.00;;;;2078061;28;20566;-49
2022/03/20 00:49:42;;;;;;;19.47;17.47;;;;;21.60;102103.00;;;;2079029;28;20228;-49
2022/03/20 00:50:42;;;;;;;17.57;15.87;;;;;21.50;102102.00;;;;2077736;28;20213;-49
2022/03/20 00:51:43;;;;;;;18.77;16.97;;;;;21.50;102099.00;;;;2079078;28;20251;-49
2022/03/20 00:52:43;;;;;;;19.83;17.73;;;;;21.50;102104.00;;;;2077710;28;20223;-49
2022/03/20 00:53:44;;;;;;;18.13;15.93;;;;;21.50;102100.00;;;;2078851;28;20697;-49
2022/03/20 00:54:44;;;;;;;18.93;16.40;;;;;21.50;102103.00;;;;2078663;28;20901;-49
2022/03/20 00:55:44;;;;;;;18.87;16.90;;;;;21.50;102089.00;;;;2077371;28;20843;-49
2022/03/20 00:56:46;;;;;;;16.87;15.20;;;;;21.50;102095.00;;;;2078673;28;20213;-49
2022/03/20 00:57:46;;;;;;;18.55;16.58;;;;;21.50;102095.00;;;;2078559;28;20228;-49
2022/03/20 00:58:47;;;;;;;19.00;17.03;;;;;21.50;102095.00;;;;2075425;28;20217;-49
2022/03/20 00:59:47;;;;;;;19.50;17.67;;;;;21.50;102090.00;;;;2078701;28;20249;-49
2022/03/20 01:00:50;;;;;;;16.97;15.37;;;;;21.50;102089.00;;;;2078404;28;20214;-49
2022/03/20 01:01:51;;;;;;;18.30;16.35;;;;;21.50;102087.00;;;;2076654;28;20234;-49
2022/03/20 01:02:52;;;;;;;17.20;15.60;;;;;21.50;102088.00;;;;2073986;28;20728;-49
2022/03/20 01:03:52;;;;;;;17.17;15.40;;;;;21.50;102084.00;;;;2068364;28;21353;-49
2022/03/20 01:04:53;;;;;;;17.40;15.63;;;;;21.50;102080.00;;;;2069783;28;20225;-49
2022/03/20 01:05:53;;;;;;;18.50;16.43;;;;;21.50;102088.00;;;;2070061;28;20233;-49
2022/03/20 01:07:00;;;;;;;19.13;17.00;;;;;21.50;102078.00;;;;2070596;28;20217;-53
2022/03/20 01:08:02;;;;;;;18.40;16.52;;;;;21.50;102071.00;;;;2077824;28;20453;-50
2022/03/20 01:09:02;;;;;;;16.23;14.63;;;;;21.50;102081.00;;;;2078948;28;20301;-49
2022/03/20 01:10:04;;;;;;;16.73;14.93;;;;;21.50;102076.00;;;;2079106;28;20217;-49
2022/03/20 01:11:05;;;;;;;16.65;14.95;;;;;21.50;102076.00;;;;2079241;28;20263;-49
2022/03/20 01:12:08;;;;;;;17.27;15.47;;;;;21.50;102069.00;;;;2079080;28;20689;-49
2022/03/20 01:13:08;;;;;;;16.92;15.23;;;;;21.40;102073.00;;;;2079238;28;20461;-49
2022/03/20 01:14:08;;;;;;;17.20;15.50;;;;;21.40;102072.00;;;;2076614;28;20209;-49
2022/03/20 01:15:10;;;;;;;17.37;15.63;;;;;21.50;102073.00;;;;2071823;28;20238;-49
2022/03/20 01:16:10;;;;;;;16.95;15.25;;;;;21.40;102056.00;;;;2072605;28;20213;-49
2022/03/20 01:17:11;;;;;;;17.50;15.80;;;;;21.50;102060.00;;;;2078839;28;20267;-49
2022/03/20 01:18:11;;;;;;;16.20;14.70;;;;;21.50;102053.00;;;;2078130;28;20260;-49
2022/03/20 01:19:11;;;;;;;16.70;15.13;;;;;21.50;102053.00;;;;2078110;28;20795;-49
2022/03/20 01:20:12;;;;;;;16.13;14.43;;;;;21.40;102060.00;;;;2077105;28;20594;-49
2022/03/20 01:21:12;;;;;;;15.27;13.87;;;;;21.40;102056.00;;;;2075127;28;20228;-49
2022/03/20 01:22:13;;;;;;;17.40;15.70;;;;;21.40;102055.00;;;;2086095;28;20224;-49
2022/03/20 01:23:13;;;;;;;16.73;15.13;;;;;21.40;102061.00;;;;2081118;28;20210;-49
2022/03/20 01:24:14;;;;;;;16.33;14.77;;;;;21.40;102049.00;;;;2076630;28;20237;-49
2022/03/20 01:25:14;;;;;;;16.57;14.90;;;;;21.40;102051.00;;;;2078560;28;20221;-49
2022/03/20 01:26:15;;;;;;;16.50;14.93;;;;;21.40;102047.00;;;;2076259;28;20256;-49
2022/03/20 01:27:16;;;;;;;16.50;14.90;;;;;21.40;102045.00;;;;2076471;28;20240;-49
2022/03/20 01:28:17;;;;;;;15.70;14.30;;;;;21.40;102042.00;;;;2075150;28;20229;-49
2022/03/20 01:29:18;;;;;;;15.20;13.80;;;;;21.40;102043.00;;;;2076297;28;20548;-49
2022/03/20 01:30:21;;;;;;;16.20;14.60;;;;;21.40;102043.00;;;;2078362;28;20228;-49
2022/03/20 01:31:21;;;;;;;17.65;14.63;;;;;21.40;102040.00;;;;2077940;28;20621;-49
2022/03/20 01:32:23;;;;;;;15.50;14.00;;;;;21.40;102039.00;;;;2078063;28;20213;-49
2022/03/20 01:33:24;;;;;;;15.13;13.63;;;;;21.40;102035.00;;;;2076493;28;20275;-49
2022/03/20 01:34:26;;;;;;;15.53;14.00;;;;;21.40;102040.00;;;;2075681;28;20301;-49
2022/03/20 01:35:27;;;;;;;16.10;14.40;;;;;21.40;102038.00;;;;2077281;28;20222;-49
2022/03/20 01:36:28;;;;;;;14.67;13.27;;;;;21.40;102032.00;;;;2078803;28;20594;-49
2022/03/20 01:37:28;;;;;;;15.43;13.93;;;;;21.40;102020.00;;;;2077830;28;20225;-49
2022/03/20 01:38:28;;;;;;;16.10;14.50;;;;;21.40;102028.00;;;;2078935;28;20456;-49
2022/03/20 01:39:29;;;;;;;15.73;14.23;;;;;21.40;102025.00;;;;2078211;28;20296;-49
2022/03/20 01:40:29;;;;;;;16.23;14.63;;;;;21.40;102031.00;;;;2074861;28;20710;-49
2022/03/20 01:41:29;;;;;;;16.80;15.20;;;;;21.40;102025.00;;;;2071499;28;20682;-49
2022/03/20 01:42:30;;;;;;;15.53;13.93;;;;;21.40;102030.00;;;;2079071;28;20209;-49
2022/03/20 01:43:30;;;;;;;15.47;14.10;;;;;21.40;102023.00;;;;2078564;28;20221;-49
2022/03/20 01:44:34;;;;;;;15.43;13.93;;;;;21.40;102019.00;;;;2075308;28;20209;-50
2022/03/20 01:45:35;;;;;;;14.88;13.48;;;;;21.40;102019.00;;;;2075059;28;20230;-49
2022/03/20 01:46:35;;;;;;;14.63;13.30;;;;;21.30;102016.00;;;;2070744;28;20221;-49
2022/03/20 01:47:36;;;;;;;15.57;14.10;;;;;21.30;102018.00;;;;2070236;28;20303;-49
2022/03/20 01:48:36;;;;;;;15.33;13.83;;;;;21.40;102020.00;;;;2070876;28;20210;-49
2022/03/20 01:49:37;;;;;;;14.90;13.50;;;;;21.40;102011.00;;;;2070472;28;20222;-49
2022/03/20 01:50:39;;;;;;;14.32;13.00;;;;;21.30;102010.00;;;;2069166;28;20224;-49
2022/03/20 01:52:58;;;;;;;15.05;13.65;;;;;21.30;102011.00;;;;2075391;28;20217;-49
2022/03/20 01:53:59;;;;;;;15.67;14.13;;;;;21.30;101999.00;;;;2077468;28;20214;-49
2022/03/20 01:55:00;;;;;;;14.35;12.82;;;;;21.30;102010.00;;;;2077434;28;20221;-49
2022/03/20 01:56:01;;;;;;;14.70;13.20;;;;;21.30;101993.00;;;;2068921;28;20214;-49
2022/03/20 01:57:02;;;;;;;14.90;13.50;;;;;21.30;102000.00;;;;2071503;28;20697;-49
2022/03/20 01:58:02;;;;;;;14.40;13.00;;;;;21.30;101996.00;;;;2071871;28;20221;-49
2022/03/20 01:59:05;;;;;;;14.53;13.23;;;;;21.30;101995.00;;;;2060052;28;20217;-49
2022/03/20 02:00:06;;;;;;;14.80;13.45;;;;;21.30;101986.00;;;;2077615;28;20225;-50
2022/03/20 02:01:07;;;;;;;14.52;13.23;;;;;21.30;101987.00;;;;2075736;28;20220;-49
2022/03/20 02:02:07;;;;;;;15.20;13.80;;;;;21.30;101986.00;;;;2078777;28;20732;-49
2022/03/20 02:03:07;;;;;;;15.00;13.40;;;;;21.30;101988.00;;;;2078794;28;20217;-49
2022/03/20 02:04:12;;;;;;;15.57;13.93;;;;;21.30;101979.00;;;;2075703;28;20216;-49
2022/03/20 02:05:12;;;;;;;15.18;13.82;;;;;21.30;101981.00;;;;2077069;28;20206;-48
2022/03/20 02:06:14;;;;;;;14.43;13.03;;;;;21.30;101975.00;;;;2077580;28;20212;-49
2022/03/20 02:07:15;;;;;;;13.27;12.07;;;;;21.30;101986.00;;;;2069222;28;20220;-49
2022/03/20 02:08:16;;;;;;;14.25;12.88;;;;;21.30;101975.00;;;;2070055;28;20211;-49
2022/03/20 02:09:17;;;;;;;14.80;13.40;;;;;21.30;101981.00;;;;2075485;28;20300;-49
2022/03/20 02:10:17;;;;;;;13.37;12.17;;;;;21.30;101975.00;;;;2077886;28;20208;-49
2022/03/20 02:11:18;;;;;;;14.50;13.10;;;;;21.30;101980.00;;;;2078702;28;20304;-49
2022/03/20 02:12:18;;;;;;;15.00;13.50;;;;;21.30;101977.00;;;;2078258;28;20222;-49
2022/03/20 02:13:22;;;;;;;14.43;13.13;;;;;21.30;101968.00;;;;2077781;28;20796;-49
2022/03/20 02:14:23;;;;;;;15.50;13.90;;;;;21.20;101976.00;;;;2078512;28;20592;-49
2022/03/20 02:15:23;;;;;;;15.57;14.07;;;;;21.30;101967.00;;;;2075825;28;20213;-50
2022/03/20 02:16:23;;;;;;;15.40;13.83;;;;;21.20;101957.00;;;;2061595;28;20316;-49
2022/03/20 02:17:28;;;;;;;15.93;14.33;;;;;21.30;101965.00;;;;2061210;28;20218;-49
2022/03/20 02:18:30;;;;;;;15.18;13.68;;;;;21.00;101968.00;;;;2085033;28;20865;-49
2022/03/20 02:19:32;;;;;;;13.70;12.40;;;;;21.20;101967.00;;;;2069123;28;20214;-49
2022/03/20 02:20:32;;;;;;;15.05;13.75;;;;;21.20;101950.00;;;;2068260;28;20236;-49
2022/03/20 02:21:40;;;;;;;14.17;12.80;;;;;21.20;101953.00;;;;2077940;28;20715;-49
2022/03/20 02:22:43;;;;;;;13.77;12.43;;;;;21.20;101949.00;;;;2077699;28;20213;-50
2022/03/20 02:23:44;;;;;;;14.20;12.80;;;;;21.20;101951.00;;;;2078272;28;20225;-49
2022/03/20 02:24:48;;;;;;;14.33;12.97;;;;;21.20;101949.00;;;;2078378;28;20270;-49
2022/03/20 02:25:51;;;;;;;14.05;12.70;;;;;21.20;101945.00;;;;2076927;28;20210;-49
2022/03/20 02:26:51;;;;;;;14.88;13.50;;;;;21.20;101951.00;;;;2070414;28;20221;-50
2022/03/20 02:27:53;;;;;;;14.23;12.77;;;;;21.20;101955.00;;;;2061606;28;20207;-49
2022/03/20 02:28:54;;;;;;;14.10;12.85;;;;;21.20;101947.00;;;;2054505;28;20288;-49
2022/03/20 02:29:58;;;;;;;13.27;12.10;;;;;21.20;101943.00;;;;2070034;28;21290;-49
2022/03/20 02:30:58;;;;;;;13.82;12.52;;;;;21.20;101941.00;;;;2077968;28;20272;-49
2022/03/20 02:31:59;;;;;;;13.23;12.03;;;;;21.20;101936.00;;;;2077455;28;20707;-49
2022/03/20 02:32:59;;;;;;;13.70;12.50;;;;;21.20;101944.00;;;;2077417;28;20571;-49
2022/03/20 02:34:00;;;;;;;14.03;12.83;;;;;21.20;101934.00;;;;2077949;28;20312;-49
2022/03/20 02:35:03;;;;;;;13.37;12.17;;;;;21.20;101945.00;;;;2077326;28;22994;-49
2022/03/20 02:36:04;;;;;;;14.70;13.30;;;;;21.20;101934.00;;;;2069068;28;20480;-49
2022/03/20 02:37:04;;;;;;;14.10;12.70;;;;;21.20;101952.00;;;;2068244;28;20225;-48
2022/03/20 02:38:05;;;;;;;13.97;12.77;;;;;21.20;101931.00;;;;2084858;28;20221;-49
2022/03/20 02:39:05;;;;;;;13.27;11.93;;;;;21.20;101935.00;;;;2074481;28;20232;-49
2022/03/20 02:40:06;;;;;;;14.20;12.37;;;;;21.20;101936.00;;;;2077454;28;20221;-49
2022/03/20 02:41:14;;;;;;;14.80;13.27;;;;;21.20;101937.00;;;;2077693;28;20224;-49
2022/03/20 02:42:15;;;;;;;13.80;12.50;;;;;21.20;101940.00;;;;2077174;28;20244;-48
2022/03/20 02:43:17;;;;;;;12.73;11.57;;;;;21.20;101924.00;;;;2076747;28;20217;-49
2022/03/20 02:44:18;;;;;;;13.40;12.18;;;;;21.20;101926.00;;;;2077405;28;20217;-49
2022/03/20 02:45:23;;;;;;;13.70;12.38;;;;;21.20;101932.00;;;;2078174;28;20681;-49
2022/03/20 02:46:24;;;;;;;13.45;12.25;;;;;21.20;101922.00;;;;2077935;28;20217;-49
2022/03/20 02:47:29;;;;;;;13.80;12.60;;;;;21.20;101913.00;;;;2075985;28;20229;-49
2022/03/20 02:48:30;;;;;;;15.05;12.60;;;;;21.20;101916.00;;;;2078040;28;20573;-49
2022/03/20 02:49:30;;;;;;;12.90;11.80;;;;;21.10;101913.00;;;;2077767;28;20312;-49
2022/03/20 02:50:32;;;;;;;13.80;12.50;;;;;21.20;101910.00;;;;2072602;28;20465;-49
2022/03/20 02:51:34;;;;;;;12.80;11.60;;;;;21.20;101909.00;;;;2069928;28;20308;-49
2022/03/20 02:52:54;;;;;;;13.88;12.50;;;;;21.10;101903.00;;;;2069082;28;20300;-49
2022/03/20 02:53:55;;;;;;;13.85;12.65;;;;;21.10;101908.00;;;;2069933;28;20236;-49
2022/03/20 02:55:00;;;;;;;12.98;11.88;;;;;21.10;101904.00;;;;2069654;28;20214;-48
2022/03/20 02:56:00;;;;;;;13.27;12.07;;;;;21.10;101903.00;;;;2069994;28;20214;-49
2022/03/20 02:57:06;;;;;;;12.70;11.50;;;;;21.10;101902.00;;;;2078914;28;20221;-48
2022/03/20 02:58:12;;;;;;;13.23;12.02;;;;;21.10;101909.00;;;;2079585;28;20967;-49
2022/03/20 02:59:12;;;;;;;14.13;12.75;;;;;21.10;101899.00;;;;2079665;28;20225;-49
2022/03/20 03:00:14;;;;;;;12.90;11.80;;;;;21.10;101904.00;;;;2079014;28;20232;-49
2022/03/20 03:01:16;;;;;;;13.77;12.50;;;;;21.10;101910.00;;;;2079530;28;20217;-49
2022/03/20 03:02:16;;;;;;;13.20;12.00;;;;;21.10;101906.00;;;;2077647;28;20284;-51
2022/03/20 03:03:18;;;;;;;13.73;12.33;;;;;21.10;101901.00;;;;2066725;28;20214;-51
2022/03/20 03:04:22;;;;;;;13.38;12.18;;;;;21.10;101908.00;;;;2070409;28;20214;-49
2022/03/20 03:05:25;;;;;;;13.23;12.07;;;;;21.10;101898.00;;;;2062152;28;20222;-49
2022/03/20 03:06:26;;;;;;;14.27;12.95;;;;;21.10;101898.00;;;;2062950;28;20211;-50
2022/03/20 03:07:27;;;;;;;12.97;11.87;;;;;21.10;101906.00;;;;2071050;28;20312;-49
2022/03/20 03:11:10;;;;;;;13.23;12.02;;;;;21.10;101894.00;;;;2073946;28;20241;-49
2022/03/20 03:12:10;;;;;;;12.97;11.67;;;;;21.10;101895.00;;;;2079364;28;20213;-49
2022/03/20 03:13:11;;;;;;;13.83;12.53;;;;;21.10;101893.00;;;;2079488;28;20209;-49
2022/03/20 03:15:30;;;;;;;14.43;13.05;;;;;21.10;101890.00;;;;2076836;28;20468;-49
2022/03/20 03:16:31;;;;;;;13.80;12.50;;;;;21.10;101899.00;;;;2079123;28;20677;-49
2022/03/20 03:17:31;;;;;;;13.80;12.50;;;;;21.10;101891.00;;;;2078807;28;20243;-48
2022/03/20 03:18:31;;;;;;;13.47;12.23;;;;;21.10;101887.00;;;;2079999;28;20210;-49
2022/03/20 03:19:32;;;;;;;13.50;12.20;;;;;21.10;101887.00;;;;2076739;28;20689;-49
2022/03/20 03:20:32;;;;;;;13.10;11.90;;;;;21.10;101870.00;;;;2078833;28;20732;-49
2022/03/20 03:21:33;;;;;;;13.80;12.50;;;;;21.10;101881.00;;;;2071251;28;20816;-49
2022/03/20 03:22:33;;;;;;;12.37;11.27;;;;;21.10;101882.00;;;;2078856;28;20855;-49
2022/03/20 03:23:36;;;;;;;12.90;11.80;;;;;21.10;101876.00;;;;2079143;28;20267;-49
2022/03/20 03:24:36;;;;;;;13.57;12.38;;;;;21.10;101881.00;;;;2078136;28;20205;-49
2022/03/20 03:25:37;;;;;;;14.03;12.83;;;;;21.00;101877.00;;;;2061515;28;20294;-49
2022/03/20 03:26:38;;;;;;;12.77;11.55;;;;;21.00;101875.00;;;;2062539;28;20971;-48
2022/03/20 03:27:40;;;;;;;13.90;12.63;;;;;21.00;101875.00;;;;2071420;28;20209;-49
2022/03/20 03:28:41;;;;;;;13.52;12.32;;;;;21.00;101869.00;;;;2075321;28;20209;-49
2022/03/20 03:29:41;;;;;;;12.70;11.60;;;;;21.00;101870.00;;;;2076461;28;20302;-49
2022/03/20 03:30:46;;;;;;;14.50;13.20;;;;;21.10;101863.00;;;;2078780;28;20213;-49
2022/03/20 03:31:47;;;;;;;13.68;12.35;;;;;21.00;101873.00;;;;2071609;28;20222;-49
2022/03/20 03:32:47;;;;;;;13.00;11.80;;;;;21.00;101860.00;;;;2078641;28;20217;-49
2022/03/20 03:36:29;;;;;;;13.70;12.45;;;;;21.00;101865.00;;;;2077698;28;20689;-49
2022/03/20 03:37:32;;;;;;;12.73;11.63;;;;;21.00;101855.00;;;;2071188;28;20206;-49
2022/03/20 03:38:35;;;;;;;13.30;12.18;;;;;21.00;101848.00;;;;2059404;28;20222;-49
2022/03/20 03:39:36;;;;;;;12.68;11.57;;;;;21.00;101851.00;;;;2070338;28;20309;-49
2022/03/20 03:40:40;;;;;;;12.17;11.17;;;;;21.00;101851.00;;;;2070786;28;20327;-49
2022/03/20 03:41:41;;;;;;;13.45;12.23;;;;;21.00;101845.00;;;;2075195;28;20249;-49
2022/03/20 03:42:42;;;;;;;14.10;12.70;;;;;21.00;101837.00;;;;2078690;28;20538;-49
2022/03/20 03:43:43;;;;;;;13.23;12.00;;;;;21.00;101841.00;;;;2079837;28;20233;-49
2022/03/20 03:44:43;;;;;;;13.07;11.90;;;;;21.00;101844.00;;;;2074757;28;20256;-49
2022/03/20 03:45:44;;;;;;;12.90;11.60;;;;;21.00;101842.00;;;;2079198;28;20229;-49
2022/03/20 03:46:44;;;;;;;12.40;11.30;;;;;21.00;101841.00;;;;2079947;28;20316;-49
2022/03/20 03:47:45;;;;;;;13.27;11.97;;;;;21.00;101838.00;;;;2079560;28;20213;-49
2022/03/20 03:48:45;;;;;;;12.67;11.53;;;;;21.00;101848.00;;;;2078604;28;20217;-48
2022/03/20 03:49:45;;;;;;;12.43;11.33;;;;;21.00;101842.00;;;;2076113;28;20789;-49
2022/03/20 03:50:47;;;;;;;13.57;12.37;;;;;21.00;101842.00;;;;2079622;28;20222;-49
2022/03/20 03:51:47;;;;;;;13.05;11.82;;;;;21.00;101841.00;;;;2079342;28;20225;-49
2022/03/20 03:52:48;;;;;;;13.13;11.82;;;;;21.00;101831.00;;;;2079541;28;20237;-49
2022/03/20 03:53:49;;;;;;;13.70;12.40;;;;;21.00;101827.00;;;;2079460;28;20221;-49
2022/03/20 03:54:49;;;;;;;12.13;11.03;;;;;21.00;101827.00;;;;2075714;28;20283;-49
2022/03/20 03:55:49;;;;;;;13.73;12.43;;;;;21.00;101825.00;;;;2078405;28;20704;-49
2022/03/20 03:56:50;;;;;;;13.10;11.90;;;;;21.00;101822.00;;;;2078272;28;20685;-49
2022/03/20 03:57:50;;;;;;;13.00;11.90;;;;;20.90;101823.00;;;;2078417;28;20205;-49
2022/03/20 03:58:51;;;;;;;12.70;11.60;;;;;21.00;101827.00;;;;2078672;28;20216;-49
2022/03/20 03:59:51;;;;;;;12.00;11.00;;;;;21.00;101836.00;;;;2078951;28;20595;-49
2022/03/20 04:00:51;;;;;;;12.63;11.43;;;;;21.00;101826.00;;;;2078520;28;20640;-49
2022/03/20 04:01:52;;;;;;;12.73;11.70;;;;;21.00;101829.00;;;;2078996;28;20681;-49
2022/03/20 04:02:52;;;;;;;12.30;11.20;;;;;21.00;101830.00;;;;2078645;28;20242;-49
2022/03/20 04:03:52;;;;;;;13.40;12.10;;;;;20.90;101826.00;;;;2078834;28;20201;-49
2022/03/20 04:04:54;;;;;;;11.90;10.90;;;;;21.00;101836.00;;;;2076266;28;20403;-49
2022/03/20 04:05:56;;;;;;;12.60;11.45;;;;;20.90;101830.00;;;;2078262;28;20222;-49
2022/03/20 04:06:56;;;;;;;12.65;11.45;;;;;21.00;101826.00;;;;2076629;28;20304;-49
2022/03/20 04:07:57;;;;;;;13.20;12.10;;;;;20.90;101824.00;;;;2078640;28;20216;-49
2022/03/20 04:08:58;;;;;;;11.50;10.50;;;;;20.90;101817.00;;;;2077350;28;20319;-49
2022/03/20 04:10:01;;;;;;;13.10;12.00;;;;;20.90;101827.00;;;;2068785;28;20988;-50
2022/03/20 04:11:02;;;;;;;13.35;12.07;;;;;20.90;101814.00;;;;2070323;28;20206;-50
2022/03/20 04:12:03;;;;;;;13.33;12.20;;;;;20.90;101810.00;;;;2070326;28;20214;-49
2022/03/20 04:13:04;;;;;;;12.45;11.25;;;;;20.90;101818.00;;;;2074265;28;20469;-50
2022/03/20 04:14:05;;;;;;;12.00;10.95;;;;;20.90;101824.00;;;;2069033;28;20687;-49
2022/03/20 04:15:06;;;;;;;13.60;12.30;;;;;20.90;101813.00;;;;2065562;28;20280;-49
2022/03/20 04:16:07;;;;;;;12.45;11.45;;;;;20.90;101813.00;;;;2069778;28;20206;-48
2022/03/20 04:17:07;;;;;;;12.33;11.23;;;;;20.90;101825.00;;;;2070340;28;20212;-49
2022/03/20 04:18:08;;;;;;;12.60;11.50;;;;;20.90;101815.00;;;;2070439;28;20222;-49
2022/03/20 04:19:09;;;;;;;13.23;12.03;;;;;20.90;101817.00;;;;2068539;28;20209;-49
2022/03/20 04:20:10;;;;;;;13.30;12.00;;;;;20.90;101818.00;;;;2070715;28;20222;-49
2022/03/20 04:21:10;;;;;;;13.13;11.88;;;;;20.90;101805.00;;;;2070318;28;20222;-49
2022/03/20 04:22:11;;;;;;;13.77;12.27;;;;;20.90;101806.00;;;;2070284;28;21002;-49
2022/03/20 04:24:30;;;;;;;12.38;11.27;;;;;20.90;101815.00;;;;2074806;28;20705;-49
2022/03/20 04:25:32;;;;;;;13.60;12.30;;;;;20.90;101802.00;;;;2077797;28;20209;-49
2022/03/20 04:26:33;;;;;;;13.25;12.05;;;;;20.90;101803.00;;;;2078569;28;20632;-52
2022/03/20 04:27:33;;;;;;;12.98;11.77;;;;;20.90;101804.00;;;;2077703;28;20217;-49
2022/03/20 04:28:34;;;;;;;12.90;11.80;;;;;20.90;101806.00;;;;2078806;28;21128;-50
2022/03/20 04:29:34;;;;;;;14.13;12.83;;;;;20.90;101799.00;;;;2077143;28;20308;-49
2022/03/20 04:30:35;;;;;;;13.10;11.93;;;;;20.90;101809.00;;;;2076985;28;20220;-49
2022/03/20 04:31:36;;;;;;;13.40;12.10;;;;;20.90;101812.00;;;;2074821;28;20284;-49
2022/03/20 04:32:36;;;;;;;12.63;11.50;;;;;20.90;101810.00;;;;2070658;28;20456;-49
2022/03/20 04:33:37;;;;;;;12.30;11.20;;;;;20.90;101822.00;;;;2070337;28;20678;-49
2022/03/20 04:34:43;;;;;;;12.87;11.67;;;;;20.90;101801.00;;;;2070175;28;20965;-49
2022/03/20 04:35:44;;;;;;;13.23;12.05;;;;;20.90;101797.00;;;;2069570;28;20222;-49
2022/03/20 04:36:45;;;;;;;13.40;12.10;;;;;20.90;101804.00;;;;2070425;28;20273;-49
2022/03/20 04:37:45;;;;;;;12.15;11.05;;;;;20.90;101797.00;;;;2070610;28;21406;-50
2022/03/20 04:38:45;;;;;;;12.10;11.00;;;;;20.90;101796.00;;;;2071056;28;20268;-49
2022/03/20 04:39:46;;;;;;;12.90;11.67;;;;;20.90;101795.00;;;;2078708;28;20225;-49
2022/03/20 04:40:48;;;;;;;13.20;12.00;;;;;20.90;101800.00;;;;2073332;28;20258;-49
2022/03/20 04:41:49;;;;;;;12.23;11.13;;;;;20.90;101781.00;;;;2069124;28;20475;-49
2022/03/20 04:42:50;;;;;;;14.00;12.43;;;;;20.90;101792.00;;;;2073733;28;20303;-49
2022/03/20 04:43:50;;;;;;;13.10;11.90;;;;;20.90;101788.00;;;;2078203;28;20210;-49
2022/03/20 04:44:51;;;;;;;11.93;10.90;;;;;20.90;101781.00;;;;2076114;28;20673;-48
2022/03/20 04:45:51;;;;;;;13.57;12.37;;;;;20.80;101794.00;;;;2078363;28;20210;-48
2022/03/20 04:46:52;;;;;;;12.90;11.60;;;;;20.80;101791.00;;;;2078780;28;20214;-49
2022/03/20 04:58:29;;;;;;;13.27;12.00;;;;;20.80;101794.00;;;;2078625;28;20213;-49
2022/03/20 04:59:30;;;;;;;14.20;12.25;;;;;20.80;101792.00;;;;2078566;28;20270;-49
2022/03/20 05:00:30;;;;;;;13.13;11.90;;;;;20.80;101791.00;;;;2078656;28;20729;-49
2022/03/20 05:01:30;;;;;;;13.50;12.03;;;;;20.80;101782.00;;;;2079387;28;20209;-49
2022/03/20 05:02:31;;;;;;;13.17;11.97;;;;;20.80;101792.00;;;;2079323;28;20264;-49
2022/03/20 05:03:32;;;;;;;13.30;12.00;;;;;20.80;101790.00;;;;2079441;28;20213;-49
2022/03/20 05:04:32;;;;;;;12.43;11.13;;;;;20.80;101791.00;;;;2076109;28;20213;-49
2022/03/20 05:05:32;;;;;;;13.17;12.00;;;;;20.80;101804.00;;;;2069822;28;20678;-49
2022/03/20 05:06:33;;;;;;;12.50;11.37;;;;;20.80;101799.00;;;;2070405;28;20297;-49
2022/03/20 05:07:34;;;;;;;12.03;10.83;;;;;20.80;101796.00;;;;2071077;28;20244;-49
2022/03/20 05:08:37;;;;;;;13.23;12.03;;;;;20.80;101792.00;;;;2071240;28;20254;-49
2022/03/20 05:13:41;;;;;;;13.20;12.00;;;;;20.70;101778.00;;;;2078755;28;20209;-50
2022/03/20 05:14:41;;;;;;;12.00;10.70;;;;;20.80;101783.00;;;;2075680;28;20217;-49
2022/03/20 05:15:42;;;;;;;12.87;11.77;;;;;20.80;101787.00;;;;2078582;28;20263;-50
2022/03/20 05:16:42;;;;;;;13.27;12.03;;;;;20.80;101778.00;;;;2079142;28;20261;-49
2022/03/20 05:17:42;;;;;;;13.53;12.17;;;;;20.80;101781.00;;;;2076943;28;20245;-49
2022/03/20 05:18:43;;;;;;;13.10;11.80;;;;;20.80;101783.00;;;;2078575;28;20216;-50
2022/03/20 05:19:43;;;;;;;13.00;11.73;;;;;20.80;101780.00;;;;2077670;28;20221;-50